createdAt,value
2022-10-19T00:02:20.863Z,10.82
2022-10-19T00:04:47.594Z,10.82
2022-10-19T00:07:14.235Z,10.82
2022-10-19T00:09:43.529Z,10.81
2022-10-19T00:12:10.237Z,10.81
2022-10-19T00:14:36.840Z,10.80
2022-10-19T00:17:03.560Z,10.79
2022-10-19T00:19:30.266Z,10.76
2022-10-19T00:21:56.932Z,10.74
2022-10-19T00:24:23.618Z,10.73
2022-10-19T00:26:50.342Z,10.71
2022-10-19T00:29:17.089Z,10.70
2022-10-19T00:31:43.772Z,10.67
2022-10-19T00:34:10.578Z,10.63
2022-10-19T00:36:38.524Z,10.60
2022-10-19T00:39:06.413Z,10.55
2022-10-19T00:41:33.530Z,10.52
2022-10-19T00:44:12.469Z,10.48
2022-10-19T00:46:43.410Z,10.44
2022-10-19T00:49:15.110Z,10.41
2022-10-19T00:51:43.995Z,10.38
2022-10-19T00:54:10.773Z,10.38
2022-10-19T00:56:38.404Z,10.39
2022-10-19T00:59:05.157Z,10.43
2022-10-19T01:01:32.018Z,10.47
2022-10-19T01:03:58.783Z,10.54
2022-10-19T01:06:25.595Z,10.62
2022-10-19T01:08:52.257Z,10.68
2022-10-19T01:11:27.410Z,10.74
2022-10-19T01:14:14.545Z,10.81
2022-10-19T01:16:53.288Z,10.87
2022-10-19T01:19:37.188Z,10.93
2022-10-19T01:22:30.279Z,10.99
2022-10-19T01:25:20.210Z,11.04
2022-10-19T01:28:08.537Z,11.07
2022-10-19T01:30:42.600Z,11.10
2022-10-19T01:33:12.291Z,11.11
2022-10-19T01:36:04.965Z,11.13
2022-10-19T01:38:51.032Z,11.15
2022-10-19T01:41:28.810Z,11.16
2022-10-19T01:43:58.804Z,11.17
2022-10-19T01:46:39.263Z,11.17
2022-10-19T01:49:18.226Z,11.16
2022-10-19T01:51:50.431Z,11.16
2022-10-19T01:54:17.285Z,11.16
2022-10-19T01:56:44.074Z,11.17
2022-10-19T01:59:10.893Z,11.16
2022-10-19T02:01:38.079Z,11.14
2022-10-19T02:04:04.790Z,11.12
2022-10-19T02:06:31.465Z,11.10
2022-10-19T02:08:58.143Z,11.08
2022-10-19T02:11:24.824Z,11.04
2022-10-19T02:13:54.566Z,11.06
2022-10-19T02:16:25.799Z,11.04
2022-10-19T02:18:52.475Z,11.01
2022-10-19T02:21:19.233Z,10.97
2022-10-19T02:23:48.332Z,10.93
2022-10-19T02:26:17.137Z,10.93
2022-10-19T02:28:44.000Z,10.90
2022-10-19T02:31:10.694Z,10.88
2022-10-19T02:33:37.420Z,10.86
2022-10-19T02:36:04.096Z,10.85
2022-10-19T02:38:30.756Z,10.82
2022-10-19T02:41:17.000Z,10.78
2022-10-19T02:43:45.597Z,10.77
2022-10-19T02:46:25.818Z,10.73
2022-10-19T02:48:52.489Z,10.68
2022-10-19T02:51:51.751Z,10.67
2022-10-19T02:54:18.608Z,10.62
2022-10-19T02:56:45.285Z,10.58
2022-10-19T02:59:11.933Z,10.54
2022-10-19T03:01:38.596Z,10.52
2022-10-19T03:04:05.265Z,10.49
2022-10-19T03:06:31.946Z,10.46
2022-10-19T03:08:58.608Z,10.44
2022-10-19T03:11:25.297Z,10.42
2022-10-19T03:13:51.969Z,10.42
2022-10-19T03:16:18.681Z,10.41
2022-10-19T03:18:45.299Z,10.42
2022-10-19T03:21:12.803Z,10.42
2022-10-19T03:23:39.782Z,10.44
2022-10-19T03:26:09.981Z,10.46
2022-10-19T03:28:38.913Z,10.49
2022-10-19T03:31:05.700Z,10.52
2022-10-19T03:33:32.372Z,10.54
2022-10-19T03:36:19.631Z,10.55
2022-10-19T03:38:46.524Z,10.56
2022-10-19T03:41:13.414Z,10.57
2022-10-19T03:43:41.246Z,10.56
2022-10-19T03:46:08.541Z,10.54
2022-10-19T03:48:35.386Z,10.57
2022-10-19T03:51:02.824Z,10.59
2022-10-19T03:53:33.144Z,10.59
2022-10-19T03:56:16.834Z,10.60
2022-10-19T03:58:44.305Z,10.60
2022-10-19T04:01:16.896Z,10.61
2022-10-19T04:03:43.711Z,10.61
2022-10-19T04:06:15.790Z,10.61
2022-10-19T04:08:45.010Z,10.62
2022-10-19T04:11:13.156Z,10.63
2022-10-19T04:13:39.964Z,10.65
2022-10-19T04:16:06.849Z,10.66
2022-10-19T04:18:33.653Z,10.68
2022-10-19T04:21:01.783Z,10.69
2022-10-19T04:23:29.741Z,10.69
2022-10-19T04:26:00.580Z,10.69
2022-10-19T04:28:27.519Z,10.68
2022-10-19T04:30:54.364Z,10.67
2022-10-19T04:33:20.942Z,10.67
2022-10-19T04:35:47.610Z,10.67
2022-10-19T04:38:14.298Z,10.65
2022-10-19T04:40:40.964Z,10.65
2022-10-19T04:43:07.606Z,10.65
2022-10-19T04:45:35.526Z,10.65
2022-10-19T04:48:02.466Z,10.64
2022-10-19T04:50:29.126Z,10.63
2022-10-19T04:52:55.841Z,10.65
2022-10-19T04:55:22.420Z,10.66
2022-10-19T04:57:49.092Z,10.66
2022-10-19T05:00:16.054Z,10.65
2022-10-19T05:02:44.561Z,10.64
2022-10-19T05:05:14.222Z,10.63
2022-10-19T05:07:41.138Z,10.64
2022-10-19T05:10:08.605Z,10.65
2022-10-19T05:12:35.850Z,10.63
2022-10-19T05:15:02.929Z,10.61
2022-10-19T05:17:31.878Z,10.59
2022-10-19T05:19:58.768Z,10.56
2022-10-19T05:22:25.460Z,10.51
2022-10-19T05:24:54.574Z,10.54
2022-10-19T05:27:24.718Z,10.55
2022-10-19T05:29:51.340Z,10.55
2022-10-19T05:32:18.073Z,10.55
2022-10-19T05:34:44.662Z,10.55
2022-10-19T05:37:11.459Z,10.57
2022-10-19T05:39:38.290Z,10.56
2022-10-19T05:42:05.233Z,10.56
2022-10-19T05:44:32.016Z,10.57
2022-10-19T05:46:58.664Z,10.57
2022-10-19T05:49:25.345Z,10.57
2022-10-19T05:51:52.150Z,10.59
2022-10-19T05:54:18.882Z,10.61
2022-10-19T05:56:45.812Z,10.64
2022-10-19T05:59:15.444Z,10.67
2022-10-19T06:01:42.191Z,10.70
2022-10-19T06:04:08.916Z,10.73
2022-10-19T06:06:35.651Z,10.74
2022-10-19T06:09:02.370Z,10.76
2022-10-19T06:11:29.850Z,10.74
2022-10-19T06:13:58.108Z,10.77
2022-10-19T06:16:25.688Z,10.78
2022-10-19T06:18:52.703Z,10.79
2022-10-19T06:21:21.045Z,10.80
2022-10-19T06:23:51.752Z,10.82
2022-10-19T06:26:18.706Z,10.86
2022-10-19T06:28:45.356Z,10.89
2022-10-19T06:31:13.376Z,10.91
2022-10-19T06:33:40.985Z,10.92
2022-10-19T06:36:23.355Z,10.92
2022-10-19T06:38:50.211Z,10.94
2022-10-19T06:41:17.248Z,10.97
2022-10-19T06:43:44.326Z,10.98
2022-10-19T06:46:15.675Z,10.98
2022-10-19T06:48:42.444Z,10.98
2022-10-19T06:51:09.158Z,10.98
2022-10-19T06:53:36.302Z,10.98
2022-10-19T06:56:05.436Z,10.97
2022-10-19T06:58:35.528Z,10.98
2022-10-19T07:01:02.319Z,10.98
2022-10-19T07:03:29.287Z,11.00
2022-10-19T07:05:57.081Z,11.02
2022-10-19T07:08:24.404Z,11.05
2022-10-19T07:10:56.126Z,11.08
2022-10-19T07:13:23.018Z,11.09
2022-10-19T07:15:49.741Z,11.11
2022-10-19T07:18:16.418Z,11.13
2022-10-19T07:20:43.099Z,11.14
2022-10-19T07:23:09.702Z,11.16
2022-10-19T07:25:36.574Z,11.18
2022-10-19T07:28:03.333Z,11.22
2022-10-19T07:30:29.965Z,11.27
2022-10-19T07:32:56.635Z,11.32
2022-10-19T07:35:23.302Z,11.36
2022-10-19T07:37:49.926Z,11.41
2022-10-19T07:40:16.609Z,11.46
2022-10-19T07:42:43.312Z,11.52
2022-10-19T07:45:10.140Z,11.56
2022-10-19T07:47:37.040Z,11.60
2022-10-19T07:50:03.949Z,11.64
2022-10-19T07:52:33.076Z,11.67
2022-10-19T07:55:03.475Z,11.68
2022-10-19T07:57:30.144Z,11.73
2022-10-19T07:59:56.780Z,11.74
2022-10-19T08:02:30.790Z,11.75
2022-10-19T08:08:12.312Z,11.77
2022-10-19T08:10:38.930Z,11.75
2022-10-19T08:13:05.627Z,11.75
2022-10-19T08:15:32.528Z,11.72
2022-10-19T08:17:59.886Z,11.67
2022-10-19T08:20:26.734Z,11.67
2022-10-19T08:22:56.482Z,11.66
2022-10-19T08:25:25.669Z,11.63
2022-10-19T08:27:52.639Z,11.61
2022-10-19T08:30:19.326Z,11.60
2022-10-19T08:32:45.886Z,11.60
2022-10-19T08:35:12.624Z,11.61
2022-10-19T08:37:44.842Z,11.63
2022-10-19T08:40:21.425Z,11.66
2022-10-19T08:42:51.114Z,11.68
2022-10-19T08:45:47.164Z,11.72
2022-10-19T08:48:27.142Z,11.76
2022-10-19T08:50:53.882Z,11.81
2022-10-19T08:53:37.753Z,11.83
2022-10-19T08:56:07.375Z,11.83
2022-10-19T08:58:42.987Z,11.85
2022-10-19T09:01:15.151Z,11.85
2022-10-19T09:03:56.600Z,11.86
2022-10-19T09:06:28.337Z,11.86
2022-10-19T09:08:55.643Z,11.83
2022-10-19T09:11:25.925Z,11.84
2022-10-19T09:14:05.089Z,11.85
2022-10-19T09:16:32.305Z,11.89
2022-10-19T09:18:59.026Z,11.94
2022-10-19T09:21:47.422Z,12.01
2022-10-19T09:24:25.891Z,12.09
2022-10-19T09:26:53.906Z,12.17
2022-10-19T09:29:31.113Z,12.21
2022-10-19T09:31:59.527Z,12.29
2022-10-19T09:34:36.732Z,12.33
2022-10-19T09:37:03.557Z,12.35
2022-10-19T09:39:30.738Z,12.33
2022-10-19T09:42:11.034Z,12.33
2022-10-19T09:44:37.724Z,12.32
2022-10-19T09:47:22.713Z,12.32
2022-10-19T09:49:49.410Z,12.34
2022-10-19T09:52:31.355Z,12.36
2022-10-19T09:55:02.803Z,12.36
2022-10-19T09:57:29.534Z,12.37
2022-10-19T09:59:56.585Z,12.41
2022-10-19T10:02:33.135Z,12.45
2022-10-19T10:05:10.579Z,12.48
2022-10-19T10:07:38.108Z,12.52
2022-10-19T10:10:30.563Z,12.54
2022-10-19T10:13:00.596Z,12.55
2022-10-19T10:15:41.138Z,12.56
2022-10-19T10:18:18.917Z,12.59
2022-10-19T10:20:59.438Z,12.62
2022-10-19T10:23:28.886Z,12.64
2022-10-19T10:25:56.932Z,12.66
2022-10-19T10:28:28.400Z,12.68
2022-10-19T10:31:15.347Z,12.71
2022-10-19T10:33:45.787Z,12.76
2022-10-19T10:36:12.820Z,12.80
2022-10-19T10:38:40.932Z,12.83
2022-10-19T10:41:28.938Z,12.85
2022-10-19T10:43:59.634Z,12.87
2022-10-19T10:46:41.445Z,12.89
2022-10-19T10:49:08.470Z,12.92
2022-10-19T10:51:39.383Z,12.95
2022-10-19T10:54:25.901Z,12.99
2022-10-19T10:57:09.364Z,13.02
2022-10-19T11:00:02.327Z,13.05
2022-10-19T11:02:31.217Z,13.06
2022-10-19T11:05:04.529Z,13.06
2022-10-19T11:07:32.781Z,13.07
2022-10-19T11:10:02.729Z,13.13
2022-10-19T11:12:36.203Z,13.24
2022-10-19T11:15:26.113Z,13.37
2022-10-19T11:18:14.331Z,13.49
2022-10-19T11:20:44.864Z,13.58
2022-10-19T11:23:14.768Z,13.63
2022-10-19T11:26:14.413Z,13.64
2022-10-19T11:28:50.079Z,13.68
2022-10-19T11:31:22.712Z,13.65
2022-10-19T11:34:00.374Z,13.61
2022-10-19T11:36:30.519Z,13.56
2022-10-19T11:39:21.156Z,13.51
2022-10-19T11:42:06.738Z,13.48
2022-10-19T11:44:54.328Z,13.46
2022-10-19T11:47:30.146Z,13.45
2022-10-19T11:50:03.276Z,13.46
2022-10-19T11:52:33.721Z,13.46
2022-10-19T11:55:37.466Z,13.48
2022-10-19T11:58:11.574Z,13.48
2022-10-19T12:00:45.867Z,13.49
2022-10-19T12:03:26.186Z,13.50
2022-10-19T12:06:11.906Z,13.51
2022-10-19T12:09:00.051Z,13.52
2022-10-19T12:11:41.236Z,13.54
2022-10-19T12:14:16.959Z,13.56
2022-10-19T12:16:50.045Z,13.57
2022-10-19T12:19:19.975Z,13.58
2022-10-19T12:21:46.800Z,13.58
2022-10-19T12:24:16.319Z,13.58
2022-10-19T12:26:43.008Z,13.58
2022-10-19T12:29:19.778Z,13.58
2022-10-19T12:31:46.844Z,13.58
2022-10-19T12:34:20.789Z,13.58
2022-10-19T12:36:55.860Z,13.57
2022-10-19T12:39:26.503Z,13.56
2022-10-19T12:42:15.112Z,13.54
2022-10-19T12:45:03.238Z,13.51
2022-10-19T12:47:29.926Z,13.48
2022-10-19T12:49:57.019Z,13.44
2022-10-19T12:52:46.082Z,13.41
2022-10-19T12:55:15.818Z,13.38
2022-10-19T12:57:48.359Z,13.40
2022-10-19T13:00:30.818Z,13.40
2022-10-19T13:03:23.944Z,13.40
2022-10-19T13:06:00.480Z,13.39
2022-10-19T13:08:42.050Z,13.38
2022-10-19T13:11:14.709Z,13.35
2022-10-19T13:13:58.887Z,13.34
2022-10-19T13:16:28.622Z,13.33
2022-10-19T13:19:17.945Z,13.30
2022-10-19T13:21:52.467Z,13.26
2022-10-19T13:24:25.225Z,13.21
2022-10-19T13:27:04.252Z,13.19
2022-10-19T13:29:37.143Z,13.18
2022-10-19T13:32:32.128Z,13.16
2022-10-19T13:35:21.048Z,13.13
2022-10-19T13:38:16.594Z,13.10
2022-10-19T13:40:49.568Z,13.08
2022-10-19T13:43:33.877Z,13.07
2022-10-19T13:46:11.131Z,13.06
2022-10-19T13:48:55.997Z,13.05
2022-10-19T13:51:38.274Z,13.03
2022-10-19T13:54:42.541Z,13.01
2022-10-19T13:57:32.080Z,12.99
2022-10-19T14:00:26.935Z,12.97
2022-10-19T14:03:27.736Z,12.94
2022-10-19T14:06:33.520Z,12.92
2022-10-19T14:09:13.560Z,12.90
2022-10-19T14:11:40.832Z,12.89
2022-10-19T14:14:10.559Z,12.89
2022-10-19T14:16:55.998Z,12.89
2022-10-19T14:19:41.429Z,12.89
2022-10-19T14:22:24.914Z,12.89
2022-10-19T14:24:51.810Z,12.87
2022-10-19T14:27:22.372Z,12.85
2022-10-19T14:29:50.324Z,12.82
2022-10-19T14:32:17.659Z,12.79
2022-10-19T14:34:45.794Z,12.77
2022-10-19T14:37:22.341Z,12.75
2022-10-19T14:40:04.428Z,12.72
2022-10-19T14:42:58.404Z,12.68
2022-10-19T14:45:32.111Z,12.65
2022-10-19T14:48:02.756Z,12.62
2022-10-19T14:50:41.851Z,12.60
2022-10-19T14:53:11.579Z,12.58
2022-10-19T14:55:38.237Z,12.56
2022-10-19T14:58:05.756Z,12.54
2022-10-19T15:00:32.951Z,12.53
2022-10-19T15:03:01.343Z,12.51
2022-10-19T15:05:29.432Z,12.49
2022-10-19T15:07:56.169Z,12.46
2022-10-19T15:10:23.891Z,12.44
2022-10-19T15:12:51.287Z,12.41
2022-10-19T15:15:22.198Z,12.38
2022-10-19T15:17:56.566Z,12.34
2022-10-19T15:20:43.926Z,12.36
2022-10-19T15:23:33.846Z,12.33
2022-10-19T15:26:17.282Z,12.32
2022-10-19T15:28:44.428Z,12.31
2022-10-19T15:31:18.286Z,12.27
2022-10-19T15:33:58.821Z,12.26
2022-10-19T15:36:25.931Z,12.23
2022-10-19T15:39:06.375Z,12.21
2022-10-19T15:41:45.282Z,12.18
2022-10-19T15:44:29.738Z,12.16
2022-10-19T15:47:14.842Z,12.14
2022-10-19T15:49:41.508Z,12.11
2022-10-19T15:52:18.619Z,12.09
2022-10-19T15:54:49.097Z,12.07
2022-10-19T15:57:32.654Z,12.04
2022-10-19T16:00:01.774Z,12.01
2022-10-19T16:02:30.906Z,11.98
2022-10-19T16:04:57.589Z,11.93
2022-10-19T16:07:27.466Z,11.85
2022-10-19T16:09:54.784Z,11.85
2022-10-19T16:12:22.604Z,11.82
2022-10-19T16:14:49.344Z,11.76
2022-10-19T16:17:15.988Z,11.77
2022-10-19T16:19:43.259Z,11.74
2022-10-19T16:22:10.264Z,11.73
2022-10-19T16:24:36.933Z,11.71
2022-10-19T16:27:03.762Z,11.70
2022-10-19T16:29:33.390Z,11.69
2022-10-19T16:32:00.211Z,11.67
2022-10-19T16:34:27.287Z,11.66
2022-10-19T16:36:54.586Z,11.63
2022-10-19T16:39:21.401Z,11.63
2022-10-19T16:41:48.016Z,11.61
2022-10-19T16:44:14.789Z,11.59
2022-10-19T16:46:41.447Z,11.59
2022-10-19T16:49:08.162Z,11.57
2022-10-19T16:51:35.436Z,11.56
2022-10-19T16:54:02.640Z,11.54
2022-10-19T16:56:29.961Z,11.53
2022-10-19T16:59:01.238Z,11.52
2022-10-19T17:01:28.433Z,11.50
2022-10-19T17:03:55.465Z,11.49
2022-10-19T17:06:22.479Z,11.48
2022-10-19T17:11:37.341Z,11.43
2022-10-19T17:14:06.225Z,11.40
2022-10-19T17:16:33.680Z,11.38
2022-10-19T17:19:01.517Z,11.36
2022-10-19T17:21:29.512Z,11.33
2022-10-19T17:23:58.611Z,11.32
2022-10-19T17:26:32.853Z,11.29
2022-10-19T17:28:59.903Z,11.26
2022-10-19T17:31:26.867Z,11.22
2022-10-19T17:33:53.821Z,11.19
2022-10-19T17:36:26.277Z,11.15
2022-10-19T17:38:53.799Z,11.11
2022-10-19T17:41:22.119Z,11.07
2022-10-19T17:43:51.662Z,11.05
2022-10-19T17:46:19.921Z,11.02
2022-10-19T17:48:46.795Z,11.00
2022-10-19T17:51:17.225Z,10.96
2022-10-19T17:53:44.419Z,10.94
2022-10-19T17:56:12.327Z,10.93
2022-10-19T17:58:39.972Z,10.92
2022-10-19T18:01:07.083Z,10.91
2022-10-19T18:03:34.611Z,10.91
2022-10-19T18:06:08.199Z,10.85
2022-10-19T18:08:38.726Z,10.74
2022-10-19T18:11:11.061Z,10.64
2022-10-19T18:16:21.209Z,10.46
2022-10-19T18:18:48.942Z,10.37
2022-10-19T18:21:21.087Z,10.26
2022-10-19T18:23:48.157Z,10.15
2022-10-19T18:26:19.617Z,9.99
2022-10-19T18:28:46.716Z,9.89
2022-10-19T18:31:15.214Z,9.80
2022-10-19T18:33:42.222Z,9.76
2022-10-19T18:36:09.974Z,9.73
2022-10-19T18:38:36.935Z,9.68
2022-10-19T18:43:43.629Z,9.52
2022-10-19T18:46:10.859Z,9.49
2022-10-19T18:48:38.028Z,9.45
2022-10-19T18:51:06.741Z,9.42
2022-10-19T18:53:33.576Z,9.38
2022-10-19T18:56:00.674Z,9.34
2022-10-19T18:58:28.683Z,9.33
2022-10-19T19:01:15.586Z,9.31
2022-10-19T19:03:43.741Z,9.31
2022-10-19T19:06:12.320Z,9.29
2022-10-19T19:08:39.541Z,9.26
2022-10-19T19:11:13.340Z,9.20
2022-10-19T19:13:40.180Z,9.15
2022-10-19T19:16:07.406Z,9.11
2022-10-19T19:18:34.524Z,9.05
2022-10-19T19:21:02.473Z,9.01
2022-10-19T19:23:32.112Z,8.96
2022-10-19T19:25:58.812Z,8.96
2022-10-19T19:28:26.768Z,8.91
2022-10-19T19:30:53.549Z,8.88
2022-10-19T19:33:20.183Z,8.85
2022-10-19T19:35:47.557Z,8.82
2022-10-19T19:38:14.907Z,8.79
2022-10-19T19:40:42.289Z,8.75
2022-10-19T19:43:10.102Z,8.72
2022-10-19T19:45:37.245Z,8.71
2022-10-19T19:48:04.398Z,8.68
2022-10-19T19:50:31.629Z,8.64
2022-10-19T19:52:58.799Z,8.62
2022-10-19T19:55:26.246Z,8.61
2022-10-19T19:57:54.749Z,8.58
2022-10-19T20:00:22.364Z,8.54
2022-10-19T20:02:53.089Z,8.52
2022-10-19T20:05:19.908Z,8.50
2022-10-19T20:07:46.658Z,8.48
2022-10-19T20:10:16.172Z,8.47
2022-10-19T20:12:43.636Z,8.46
2022-10-19T20:15:11.244Z,8.44
2022-10-19T20:17:38.439Z,8.43
2022-10-19T20:20:06.303Z,8.41
2022-10-19T20:25:09.068Z,8.43
2022-10-19T20:27:36.238Z,8.39
2022-10-19T20:30:04.202Z,8.38
2022-10-19T20:32:30.918Z,8.35
2022-10-19T20:34:57.596Z,8.36
2022-10-19T20:37:24.387Z,8.33
2022-10-19T20:39:50.954Z,8.30
2022-10-19T20:42:18.053Z,8.30
2022-10-19T20:44:44.926Z,8.30
2022-10-19T20:47:11.668Z,8.28
2022-10-19T20:49:38.625Z,8.28
2022-10-19T20:52:05.335Z,8.28
2022-10-19T20:54:32.062Z,8.28
2022-10-19T20:56:58.758Z,8.25
2022-10-19T20:59:27.712Z,8.21
2022-10-19T21:01:55.961Z,8.15
2022-10-19T21:04:22.878Z,8.01
2022-10-19T21:06:49.794Z,7.89
2022-10-19T21:09:18.204Z,7.77
2022-10-19T21:11:45.016Z,7.64
2022-10-19T21:14:12.619Z,7.53
2022-10-19T21:16:39.507Z,7.41
2022-10-19T21:19:27.381Z,7.33
2022-10-19T21:22:02.034Z,7.24
2022-10-19T21:24:39.434Z,7.15
2022-10-19T21:27:07.538Z,7.03
2022-10-19T21:29:34.997Z,6.98
2022-10-19T21:32:01.856Z,6.92
2022-10-19T21:34:29.057Z,6.87
2022-10-19T21:36:55.926Z,6.83
2022-10-19T21:39:22.735Z,6.76
2022-10-19T21:41:49.378Z,6.69
2022-10-19T21:44:16.798Z,6.63
2022-10-19T21:46:43.946Z,6.53
2022-10-19T21:49:12.097Z,6.46
2022-10-19T21:51:53.576Z,6.37
2022-10-19T21:54:22.059Z,6.30
2022-10-19T21:56:48.896Z,6.23
2022-10-19T21:59:15.771Z,6.20
2022-10-19T22:01:42.666Z,6.18
2022-10-19T22:04:13.077Z,6.14
2022-10-19T22:06:39.802Z,6.11
2022-10-19T22:09:07.086Z,6.08
2022-10-19T22:11:34.033Z,6.03
2022-10-19T22:14:00.981Z,5.99
2022-10-19T22:16:27.956Z,5.95
2022-10-19T22:18:54.949Z,5.91
2022-10-19T22:21:23.622Z,5.90
2022-10-19T22:23:54.659Z,5.85
2022-10-19T22:26:26.725Z,5.80
2022-10-19T22:28:55.186Z,5.72
2022-10-19T22:31:21.910Z,5.64
2022-10-19T22:33:48.680Z,5.57
2022-10-19T22:36:16.157Z,5.49
2022-10-19T22:38:43.004Z,5.42
2022-10-19T22:41:47.716Z,5.34
2022-10-19T22:45:30.193Z,5.18
2022-10-19T22:49:12.619Z,5.05
2022-10-19T22:52:55.365Z,4.94
2022-10-19T22:55:24.286Z,4.86
2022-10-19T22:57:51.090Z,4.80
2022-10-19T23:00:17.898Z,4.73
2022-10-19T23:02:44.568Z,4.68
2022-10-19T23:05:11.284Z,4.63
2022-10-19T23:07:38.335Z,4.57
2022-10-19T23:10:06.157Z,4.52
2022-10-19T23:12:33.000Z,4.47
2022-10-19T23:14:59.746Z,4.45
2022-10-19T23:17:26.502Z,4.41
2022-10-19T23:19:53.170Z,4.34
2022-10-19T23:22:19.897Z,4.30
2022-10-19T23:24:46.670Z,4.23
2022-10-19T23:27:13.688Z,4.19
2022-10-19T23:29:40.418Z,4.15
2022-10-19T23:32:07.175Z,4.17
2022-10-19T23:37:05.566Z,4.09
2022-10-19T23:39:32.274Z,4.03
2022-10-19T23:41:59.064Z,4.03
2022-10-19T23:44:25.736Z,4.01
2022-10-19T23:46:52.478Z,3.98
2022-10-19T23:49:19.218Z,3.98
2022-10-19T23:51:46.017Z,3.96
2022-10-19T23:54:12.677Z,3.92
2022-10-19T23:56:39.424Z,3.88
2022-10-19T23:59:09.605Z,3.85
